A80 TRACON Summary / KATL TAF
ATL TRACON Summary:
High pressure will continue to build in from the northwest. Expect VFR and dry conditions through the day. Surface winds will start out north at 8-10kts and shift to the northeast at 14z. Flight Hazards in the TRACON airspace: None expected.

Updated: 5/22/2015 6:00 AM
ATL Terminal Aerodrome Forecast:

FTUS80 KATL 221130
KATL 221127Z 2212/2318 34008KT P6SM SCT250
     FM221400 03007KT P6SM FEW040
     FM222000 33006KT P6SM FEW050
     FM230100 35004KT P6SM SKC
     FM230500 08004KT P6SM SKC
     FM231400 11007KT P6SM FEW230
     FM231500 11009G14KT P6SM FEW045
ATL TRACON Area Remark:
NONE.
Convective Gate Forecast / Icing Gate Forecast / Vertical Wind Profile (click on image to enlarge)
Convective Gate Forecast
Icing Gate Forecast
table with gate forecasts (convective and CCFP) used April - November while icing gate forecasts are issued
AIRMETs & SIGMETS/ Southeast Radar loop / Satellite Image (click on image to enlarge)

Southeast Radar Loop

 



USA.gov is the U.S. government's official web portal to all federal, state and local government web resources and services.